Pierre, South Dakota
Current Conditions -  °F | °C
As of 6:53 AM on Saturday 01 Nov 2014 (Local Time) from KPIR Reporting Station
Clear Clear  
Wind Chill: 24°   Ceiling: Unl
Heat Index: 35°   Visibility: 10mi
Dew Point: 15°   Wind: 21mph
Humidity: 44%   Direction: 160°SSE
Pressure: 30"   Gusts: 28mph
Location:  44.37°N, 100.35°W
Report Text: KPIR 011153Z AUTO 16018G24KT 10SM CLR 02/M09 A3000 RMK AO2 SLP171 T00171094 10022 20011 56020
Loading
Personal Weather Stations






























Interactive Weather Map
Tropical Storm Tracking
New forecast layout! Learn more

10-Day Weather Forecast

Advertisements
Track Severe Weather on mobile